createdAt,value
2022-10-09T00:01:25.805Z,52.24
2022-10-09T00:03:53.804Z,52.26
2022-10-09T00:06:33.994Z,52.05
2022-10-09T00:09:01.977Z,51.93
2022-10-09T00:11:30.311Z,52.37
2022-10-09T00:13:58.172Z,52.23
2022-10-09T00:16:25.450Z,52.02
2022-10-09T00:18:52.616Z,52.40
2022-10-09T00:21:27.859Z,52.27
2022-10-09T00:23:56.328Z,52.10
2022-10-09T00:26:23.458Z,51.95
2022-10-09T00:28:50.025Z,51.68
2022-10-09T00:31:17.038Z,51.66
2022-10-09T00:33:43.507Z,52.06
2022-10-09T00:36:13.093Z,51.92
2022-10-09T00:38:39.472Z,51.94
2022-10-09T00:41:06.645Z,51.79
2022-10-09T00:43:48.834Z,51.84
2022-10-09T00:46:44.319Z,51.99
2022-10-09T00:49:26.694Z,52.10
2022-10-09T00:51:57.057Z,51.68
2022-10-09T00:54:26.693Z,51.68
2022-10-09T00:56:53.870Z,51.79
2022-10-09T00:59:20.860Z,51.55
2022-10-09T01:01:47.560Z,51.97
2022-10-09T01:04:13.947Z,51.84
2022-10-09T01:07:08.573Z,51.68
2022-10-09T01:09:54.252Z,51.69
2022-10-09T01:12:35.606Z,51.69
2022-10-09T01:15:22.650Z,51.81
2022-10-09T01:18:06.692Z,51.60
2022-10-09T01:20:42.183Z,51.63
2022-10-09T01:23:31.683Z,51.89
2022-10-09T01:26:07.140Z,51.84
2022-10-09T01:28:35.530Z,51.67
2022-10-09T01:31:05.240Z,51.84
2022-10-09T01:33:33.156Z,51.64
2022-10-09T01:36:01.464Z,51.33
2022-10-09T01:38:29.390Z,51.47
2022-10-09T01:40:56.780Z,51.56
2022-10-09T01:43:23.098Z,51.71
2022-10-09T01:45:49.638Z,51.69
2022-10-09T01:48:23.651Z,51.74
2022-10-09T01:50:57.791Z,51.62
2022-10-09T01:53:24.819Z,51.69
2022-10-09T01:56:09.017Z,51.37
2022-10-09T01:58:38.288Z,51.26
2022-10-09T02:01:15.680Z,51.23
2022-10-09T02:03:46.560Z,51.21
2022-10-09T02:06:15.751Z,51.05
2022-10-09T02:08:45.550Z,51.15
2022-10-09T02:11:14.781Z,51.07
2022-10-09T02:13:42.032Z,51.15
2022-10-09T02:16:40.820Z,51.09
2022-10-09T02:19:22.279Z,51.09
2022-10-09T02:22:12.218Z,51.28
2022-10-09T02:24:39.918Z,51.14
2022-10-09T02:27:07.236Z,51.02
2022-10-09T02:29:33.554Z,51.00
2022-10-09T02:32:00.103Z,50.71
2022-10-09T02:34:26.446Z,50.93
2022-10-09T02:36:52.751Z,50.83
2022-10-09T02:39:19.400Z,51.13
2022-10-09T02:41:45.707Z,50.80
2022-10-09T02:44:12.008Z,50.67
2022-10-09T02:46:38.484Z,50.58
2022-10-09T02:49:05.822Z,50.80
2022-10-09T02:51:32.211Z,50.98
2022-10-09T02:53:59.617Z,50.85
2022-10-09T02:56:26.712Z,50.57
2022-10-09T02:58:53.134Z,50.76
2022-10-09T03:01:19.579Z,50.58
2022-10-09T03:03:46.251Z,50.92
2022-10-09T03:06:15.342Z,50.88
2022-10-09T03:08:44.479Z,50.91
2022-10-09T03:11:11.949Z,50.71
2022-10-09T03:13:39.640Z,50.80
2022-10-09T03:16:09.078Z,50.57
2022-10-09T03:18:35.732Z,50.79
2022-10-09T03:21:05.546Z,50.59
2022-10-09T03:23:32.063Z,50.56
2022-10-09T03:25:59.831Z,50.46
2022-10-09T03:28:26.721Z,50.36
2022-10-09T03:30:53.524Z,50.33
2022-10-09T03:33:20.934Z,50.49
2022-10-09T03:35:48.172Z,50.33
2022-10-09T03:38:15.435Z,50.23
2022-10-09T03:40:42.248Z,50.06
2022-10-09T03:43:09.388Z,50.13
2022-10-09T03:45:38.926Z,50.42
2022-10-09T03:48:05.706Z,50.17
2022-10-09T03:50:32.062Z,50.22
2022-10-09T03:52:58.387Z,50.21
2022-10-09T03:55:24.758Z,50.42
2022-10-09T03:57:51.071Z,50.34
2022-10-09T04:00:17.576Z,50.24
2022-10-09T04:02:43.922Z,50.32
2022-10-09T04:05:10.316Z,50.00
2022-10-09T04:07:36.647Z,50.01
2022-10-09T04:10:04.047Z,50.05
2022-10-09T04:12:30.395Z,50.11
2022-10-09T04:14:56.703Z,49.90
2022-10-09T04:17:23.019Z,49.82
2022-10-09T04:19:49.357Z,49.74
2022-10-09T04:22:15.760Z,49.77
2022-10-09T04:24:42.149Z,50.04
2022-10-09T04:27:08.471Z,49.66
2022-10-09T04:29:34.771Z,49.82
2022-10-09T04:32:01.238Z,50.01
2022-10-09T04:34:27.748Z,50.05
2022-10-09T04:36:54.085Z,49.49
2022-10-09T04:39:20.490Z,49.91
2022-10-09T04:41:46.852Z,49.71
2022-10-09T04:44:13.172Z,49.55
2022-10-09T04:46:39.484Z,49.70
2022-10-09T04:49:05.901Z,49.55
2022-10-09T04:51:32.290Z,49.52
2022-10-09T04:54:00.732Z,49.77
2022-10-09T04:56:27.375Z,49.45
2022-10-09T04:58:53.737Z,49.35
2022-10-09T05:01:23.191Z,49.39
2022-10-09T05:03:50.111Z,49.57
2022-10-09T05:06:17.800Z,49.38
2022-10-09T05:08:44.407Z,49.62
2022-10-09T05:11:13.326Z,49.26
2022-10-09T05:13:44.808Z,49.16
2022-10-09T05:16:16.718Z,49.63
2022-10-09T05:18:45.494Z,49.74
2022-10-09T05:21:12.296Z,49.49
2022-10-09T05:23:38.715Z,49.37
2022-10-09T05:26:07.731Z,49.32
2022-10-09T05:28:35.341Z,48.99
2022-10-09T05:31:06.599Z,49.55
2022-10-09T05:33:33.732Z,49.57
2022-10-09T05:36:03.544Z,49.14
2022-10-09T05:38:30.618Z,49.41
2022-10-09T05:40:59.552Z,49.10
2022-10-09T05:43:27.818Z,49.34
2022-10-09T05:45:54.931Z,49.20
2022-10-09T05:48:22.030Z,48.83
2022-10-09T05:50:48.600Z,48.92
2022-10-09T05:53:14.989Z,49.34
2022-10-09T05:55:41.281Z,49.61
2022-10-09T05:58:07.662Z,49.41
2022-10-09T06:00:33.974Z,49.33
2022-10-09T06:03:00.275Z,49.32
2022-10-09T06:05:26.570Z,49.31
2022-10-09T06:07:55.184Z,49.44
2022-10-09T06:10:21.483Z,49.29
2022-10-09T06:12:47.997Z,49.58
2022-10-09T06:15:14.612Z,48.59
2022-10-09T06:17:40.979Z,49.50
2022-10-09T06:20:07.602Z,49.67
2022-10-09T06:22:33.954Z,49.69
2022-10-09T06:25:00.285Z,49.84
2022-10-09T06:27:27.829Z,50.09
2022-10-09T06:29:55.905Z,50.17
2022-10-09T06:32:22.330Z,50.18
2022-10-09T06:34:48.652Z,50.12
2022-10-09T06:37:14.963Z,50.42
2022-10-09T06:39:41.260Z,50.15
2022-10-09T06:42:07.555Z,50.45
2022-10-09T06:44:33.886Z,50.22
2022-10-09T06:47:00.204Z,49.43
2022-10-09T06:49:26.756Z,50.14
2022-10-09T06:51:53.088Z,50.16
2022-10-09T06:54:19.499Z,50.61
2022-10-09T06:56:45.932Z,50.42
2022-10-09T06:59:12.645Z,50.60
2022-10-09T07:01:39.084Z,50.81
2022-10-09T07:04:09.504Z,50.53
2022-10-09T07:06:41.911Z,50.59
2022-10-09T07:09:11.723Z,51.32
2022-10-09T07:11:40.917Z,51.20
2022-10-09T07:14:09.265Z,51.20
2022-10-09T07:16:39.324Z,51.37
2022-10-09T07:19:08.156Z,51.33
2022-10-09T07:21:35.580Z,51.56
2022-10-09T07:24:03.216Z,51.85
2022-10-09T07:26:32.214Z,51.99
2022-10-09T07:28:58.852Z,51.58
2022-10-09T07:31:25.590Z,52.11
2022-10-09T07:33:54.196Z,51.82
2022-10-09T07:36:20.707Z,52.09
2022-10-09T07:38:52.284Z,52.33
2022-10-09T07:41:20.164Z,52.25
2022-10-09T07:43:46.581Z,52.49
2022-10-09T07:46:18.567Z,52.49
2022-10-09T07:48:45.844Z,52.21
2022-10-09T07:51:15.155Z,52.39
2022-10-09T07:53:41.548Z,52.37
2022-10-09T07:56:13.923Z,52.46
2022-10-09T07:58:40.242Z,52.69
2022-10-09T08:01:07.891Z,52.68
2022-10-09T08:03:34.956Z,53.20
2022-10-09T08:06:01.319Z,53.30
2022-10-09T08:08:27.652Z,53.25
2022-10-09T08:10:54.188Z,53.33
2022-10-09T08:13:20.586Z,52.96
2022-10-09T08:15:46.968Z,53.40
2022-10-09T08:18:13.348Z,53.00
2022-10-09T08:20:39.894Z,53.38
2022-10-09T08:23:06.403Z,53.13
2022-10-09T08:25:36.783Z,53.57
2022-10-09T08:28:04.153Z,53.24
2022-10-09T08:30:30.738Z,53.29
2022-10-09T08:32:57.047Z,53.66
2022-10-09T08:35:23.425Z,53.29
2022-10-09T08:37:49.749Z,53.34
2022-10-09T08:40:20.371Z,53.61
2022-10-09T08:42:57.373Z,53.59
2022-10-09T08:45:23.720Z,53.87
2022-10-09T08:47:57.689Z,53.48
2022-10-09T08:50:32.497Z,53.55
2022-10-09T08:53:00.944Z,53.80
2022-10-09T08:55:41.648Z,53.65
2022-10-09T08:58:15.990Z,54.04
2022-10-09T09:00:57.428Z,53.76
2022-10-09T09:03:23.708Z,53.98
2022-10-09T09:06:12.013Z,53.76
2022-10-09T09:09:04.516Z,53.84
2022-10-09T09:11:52.522Z,53.96
2022-10-09T09:14:21.571Z,53.74
2022-10-09T09:17:09.524Z,53.78
2022-10-09T09:20:23.627Z,54.04
2022-10-09T09:22:50.546Z,53.71
2022-10-09T09:25:23.804Z,54.15
2022-10-09T09:27:52.834Z,54.10
2022-10-09T09:30:28.980Z,54.33
2022-10-09T09:33:15.023Z,54.48
2022-10-09T09:36:08.917Z,54.46
2022-10-09T09:38:43.904Z,54.53
2022-10-09T09:41:23.029Z,54.66
2022-10-09T09:43:49.358Z,54.85
2022-10-09T09:46:20.443Z,54.48
2022-10-09T09:48:48.757Z,54.46
2022-10-09T09:51:31.405Z,54.73
2022-10-09T09:54:01.451Z,54.84
2022-10-09T09:56:59.765Z,54.57
2022-10-09T09:59:37.758Z,54.69
2022-10-09T10:02:15.277Z,54.88
2022-10-09T10:04:59.401Z,55.21
2022-10-09T10:07:36.384Z,55.10
2022-10-09T10:10:05.283Z,54.95
2022-10-09T10:12:31.823Z,55.19
2022-10-09T10:14:58.214Z,54.98
2022-10-09T10:17:30.235Z,55.15
2022-10-09T10:19:56.630Z,54.97
2022-10-09T10:22:28.004Z,54.90
2022-10-09T10:24:58.185Z,55.11
2022-10-09T10:27:37.177Z,55.42
2022-10-09T10:30:11.979Z,55.25
2022-10-09T10:32:54.006Z,55.01
2022-10-09T10:35:29.489Z,55.21
2022-10-09T10:38:06.134Z,55.24
2022-10-09T10:40:37.575Z,55.21
2022-10-09T10:43:10.112Z,55.33
2022-10-09T10:45:42.490Z,55.29
2022-10-09T10:48:12.943Z,55.11
2022-10-09T10:51:09.187Z,55.45
2022-10-09T10:54:01.892Z,55.54
2022-10-09T10:56:35.775Z,55.56
2022-10-09T10:59:24.391Z,55.72
2022-10-09T11:02:09.701Z,55.52
2022-10-09T11:04:48.908Z,55.72
2022-10-09T11:07:46.172Z,55.56
2022-10-09T11:10:24.486Z,55.56
2022-10-09T11:13:00.973Z,55.69
2022-10-09T11:15:45.372Z,55.46
2022-10-09T11:18:36.464Z,55.64
2022-10-09T11:21:22.492Z,55.93
2022-10-09T11:24:29.072Z,55.72
2022-10-09T11:27:03.574Z,56.05
2022-10-09T11:29:43.452Z,55.78
2022-10-09T11:32:33.580Z,55.70
2022-10-09T11:35:05.642Z,55.95
2022-10-09T11:37:36.338Z,55.82
2022-10-09T11:40:26.626Z,55.52
2022-10-09T11:43:08.729Z,55.02
2022-10-09T11:45:59.526Z,55.26
2022-10-09T11:48:44.817Z,55.34
2022-10-09T11:51:31.484Z,55.03
2022-10-09T11:53:58.349Z,55.20
2022-10-09T11:56:28.059Z,55.08
2022-10-09T11:59:00.310Z,54.77
2022-10-09T12:01:33.039Z,54.81
2022-10-09T12:04:32.174Z,54.90
2022-10-09T12:07:09.232Z,54.84
2022-10-09T12:09:38.301Z,54.59
2022-10-09T12:12:16.869Z,54.97
2022-10-09T12:14:46.019Z,54.81
2022-10-09T12:17:35.468Z,54.97
2022-10-09T12:20:07.345Z,54.58
2022-10-09T12:22:39.780Z,54.67
2022-10-09T12:25:38.408Z,54.86
2022-10-09T12:28:06.495Z,54.43
2022-10-09T12:30:40.818Z,54.61
2022-10-09T12:33:14.862Z,54.90
2022-10-09T12:35:45.698Z,54.56
2022-10-09T12:38:26.430Z,54.69
2022-10-09T12:40:55.455Z,54.41
2022-10-09T12:43:23.774Z,54.55
2022-10-09T12:45:52.663Z,54.40
2022-10-09T12:48:23.157Z,54.37
2022-10-09T12:50:49.907Z,54.73
2022-10-09T12:53:19.515Z,54.85
2022-10-09T12:55:49.189Z,54.50
2022-10-09T12:58:20.434Z,54.74
2022-10-09T13:00:49.970Z,54.57
2022-10-09T13:03:24.329Z,54.50
2022-10-09T13:05:51.352Z,54.18
2022-10-09T13:08:35.593Z,54.22
2022-10-09T13:11:12.042Z,54.45
2022-10-09T13:13:39.348Z,54.55
2022-10-09T13:16:09.486Z,54.04
2022-10-09T13:18:38.736Z,54.32
2022-10-09T13:21:06.405Z,54.47
2022-10-09T13:23:34.991Z,54.31
2022-10-09T13:26:04.419Z,54.57
2022-10-09T13:28:31.597Z,54.26
2022-10-09T13:31:07.012Z,54.14
2022-10-09T13:33:33.552Z,54.55
2022-10-09T13:35:59.992Z,54.39
2022-10-09T13:38:27.177Z,54.38
2022-10-09T13:40:56.949Z,54.09
2022-10-09T13:43:28.950Z,54.21
2022-10-09T13:45:55.395Z,54.22
2022-10-09T13:48:21.806Z,54.05
2022-10-09T13:50:48.155Z,54.04
2022-10-09T13:53:14.598Z,54.32
2022-10-09T13:55:40.911Z,54.23
2022-10-09T13:58:07.298Z,54.35
2022-10-09T14:00:34.144Z,54.04
2022-10-09T14:03:00.475Z,54.13
2022-10-09T14:05:26.835Z,54.03
2022-10-09T14:07:53.611Z,54.25
2022-10-09T14:10:23.921Z,54.18
2022-10-09T14:12:53.571Z,54.20
2022-10-09T14:15:20.130Z,54.13
2022-10-09T14:17:46.785Z,53.97
2022-10-09T14:20:13.783Z,53.62
2022-10-09T14:22:40.085Z,53.94
2022-10-09T14:25:07.113Z,53.93
2022-10-09T14:29:59.721Z,53.90
2022-10-09T14:32:26.565Z,53.55
2022-10-09T14:34:53.668Z,54.00
2022-10-09T14:37:39.862Z,53.65
2022-10-09T14:40:06.927Z,53.69
2022-10-09T14:42:33.255Z,53.71
2022-10-09T14:44:59.563Z,53.12
2022-10-09T14:47:25.865Z,53.42
2022-10-09T14:49:52.219Z,52.93
2022-10-09T14:52:18.596Z,53.28
2022-10-09T14:54:44.929Z,53.75
2022-10-09T14:57:11.388Z,53.60
2022-10-09T14:59:37.717Z,53.75
2022-10-09T15:02:04.124Z,53.84
2022-10-09T15:04:30.452Z,53.77
2022-10-09T15:06:56.751Z,53.97
2022-10-09T15:09:23.230Z,53.87
2022-10-09T15:11:49.672Z,54.19
2022-10-09T15:14:16.119Z,53.98
2022-10-09T15:16:42.460Z,54.24
2022-10-09T15:19:08.778Z,54.55
2022-10-09T15:21:36.024Z,54.44
2022-10-09T15:24:03.958Z,54.49
2022-10-09T15:26:38.312Z,54.40
2022-10-09T15:29:07.070Z,54.48
2022-10-09T15:31:39.282Z,54.18
2022-10-09T15:34:07.620Z,54.58
2022-10-09T15:36:36.648Z,54.68
2022-10-09T15:39:05.988Z,54.43
2022-10-09T15:41:34.973Z,54.46
2022-10-09T15:44:04.346Z,54.26
2022-10-09T15:46:31.098Z,54.34
2022-10-09T15:48:57.765Z,54.41
2022-10-09T15:51:24.652Z,54.57
2022-10-09T15:53:52.221Z,54.31
2022-10-09T15:56:21.613Z,54.36
2022-10-09T15:58:48.465Z,54.47
2022-10-09T16:01:16.291Z,54.53
2022-10-09T16:03:43.553Z,54.66
2022-10-09T16:06:12.601Z,54.32
2022-10-09T16:08:39.846Z,54.28
2022-10-09T16:13:39.137Z,54.42
2022-10-09T16:16:07.903Z,54.40
2022-10-09T16:18:35.037Z,54.00
2022-10-09T16:21:06.510Z,54.03
2022-10-09T16:23:33.325Z,54.32
2022-10-09T16:26:01.536Z,53.67
2022-10-09T16:28:28.383Z,54.02
2022-10-09T16:30:54.748Z,52.48
2022-10-09T16:33:21.877Z,53.88
2022-10-09T16:35:48.184Z,54.39
2022-10-09T16:38:15.655Z,54.15
2022-10-09T16:41:01.402Z,54.47
2022-10-09T16:43:28.567Z,54.31
2022-10-09T16:45:54.865Z,54.35
2022-10-09T16:48:21.204Z,54.58
2022-10-09T16:50:47.564Z,54.79
2022-10-09T16:53:13.867Z,54.95
2022-10-09T16:55:40.162Z,54.81
2022-10-09T16:58:06.452Z,55.09
2022-10-09T17:00:32.805Z,55.21
2022-10-09T17:02:59.128Z,54.89
2022-10-09T17:05:25.587Z,55.25
2022-10-09T17:07:52.280Z,55.03
2022-10-09T17:10:18.790Z,55.35
2022-10-09T17:12:45.185Z,55.28
2022-10-09T17:15:13.888Z,55.25
2022-10-09T17:17:40.806Z,55.59
2022-10-09T17:20:07.700Z,55.23
2022-10-09T17:22:34.012Z,55.28
2022-10-09T17:25:00.315Z,55.65
2022-10-09T17:27:26.629Z,55.59
2022-10-09T17:29:52.940Z,55.63
2022-10-09T17:32:19.366Z,55.61
2022-10-09T17:34:46.018Z,55.36
2022-10-09T17:37:13.114Z,55.21
2022-10-09T17:39:39.683Z,55.15
2022-10-09T17:42:06.066Z,55.39
2022-10-09T17:44:32.429Z,55.25
2022-10-09T17:46:58.745Z,56.00
2022-10-09T17:49:25.077Z,55.52
2022-10-09T17:51:54.339Z,55.43
2022-10-09T17:54:20.640Z,56.03
2022-10-09T17:56:46.950Z,56.06
2022-10-09T17:59:15.430Z,56.23
2022-10-09T18:01:41.885Z,56.27
2022-10-09T18:04:13.766Z,56.19
2022-10-09T18:06:40.058Z,56.44
2022-10-09T18:09:06.359Z,56.53
2022-10-09T18:11:32.782Z,56.61
2022-10-09T18:13:59.225Z,56.53
2022-10-09T18:16:35.853Z,56.71
2022-10-09T18:19:11.325Z,56.67
2022-10-09T18:21:40.219Z,56.20
2022-10-09T18:24:06.881Z,56.71
2022-10-09T18:26:33.671Z,56.45
2022-10-09T18:29:01.429Z,56.53
2022-10-09T18:31:27.937Z,56.30
2022-10-09T18:33:54.267Z,56.47
2022-10-09T18:36:25.704Z,56.15
2022-10-09T18:38:54.205Z,56.29
2022-10-09T18:41:22.551Z,56.44
2022-10-09T18:43:49.782Z,56.07
2022-10-09T18:46:18.846Z,55.99
2022-10-09T18:48:45.860Z,56.13
2022-10-09T18:51:16.573Z,55.93
2022-10-09T18:53:47.124Z,56.07
2022-10-09T18:56:14.594Z,56.04
2022-10-09T18:58:41.867Z,55.90
2022-10-09T19:01:08.475Z,55.84
2022-10-09T19:03:36.512Z,56.01
2022-10-09T19:06:04.109Z,55.93
2022-10-09T19:08:30.425Z,55.50
2022-10-09T19:10:56.733Z,55.43
2022-10-09T19:13:23.424Z,55.75
2022-10-09T19:15:54.797Z,55.82
2022-10-09T19:18:22.381Z,55.68
2022-10-09T19:20:48.898Z,55.62
2022-10-09T19:23:15.904Z,55.53
2022-10-09T19:25:47.000Z,55.53
2022-10-09T19:28:16.346Z,55.83
2022-10-09T19:30:43.700Z,55.59
2022-10-09T19:33:10.887Z,55.05
2022-10-09T19:35:50.684Z,55.28
2022-10-09T19:38:18.162Z,55.32
2022-10-09T19:40:45.457Z,55.41
2022-10-09T19:43:13.183Z,55.19
2022-10-09T19:45:40.052Z,55.08
2022-10-09T19:48:07.096Z,55.02
2022-10-09T19:50:34.083Z,55.53
2022-10-09T19:53:03.131Z,55.65
2022-10-09T19:55:33.122Z,55.43
2022-10-09T19:57:59.854Z,55.32
2022-10-09T20:00:26.385Z,55.31
2022-10-09T20:02:52.962Z,55.19
2022-10-09T20:05:19.790Z,55.40
2022-10-09T20:07:46.093Z,54.87
2022-10-09T20:10:12.545Z,54.97
2022-10-09T20:12:38.863Z,54.90
2022-10-09T20:15:05.737Z,54.81
2022-10-09T20:17:32.031Z,54.68
2022-10-09T20:19:58.412Z,54.83
2022-10-09T20:22:24.821Z,54.87
2022-10-09T20:24:54.389Z,54.48
2022-10-09T20:27:20.727Z,54.43
2022-10-09T20:29:47.912Z,54.45
2022-10-09T20:32:14.284Z,54.14
2022-10-09T20:34:40.673Z,54.44
2022-10-09T20:37:07.061Z,54.57
2022-10-09T20:39:33.412Z,54.52
2022-10-09T20:41:59.715Z,54.27
2022-10-09T20:44:26.015Z,54.24
2022-10-09T20:46:56.443Z,54.46
2022-10-09T20:49:23.568Z,53.89
2022-10-09T20:51:51.160Z,53.62
2022-10-09T20:54:20.514Z,53.72
2022-10-09T20:56:47.424Z,53.83
2022-10-09T20:59:14.718Z,53.54
2022-10-09T21:01:41.128Z,53.54
2022-10-09T21:04:07.587Z,53.35
2022-10-09T21:06:35.723Z,53.78
2022-10-09T21:09:02.912Z,53.47
2022-10-09T21:11:31.906Z,53.46
2022-10-09T21:13:58.219Z,53.47
2022-10-09T21:16:24.777Z,53.23
2022-10-09T21:18:57.342Z,53.30
2022-10-09T21:21:24.433Z,53.01
2022-10-09T21:23:52.959Z,52.98
2022-10-09T21:26:21.628Z,52.75
2022-10-09T21:28:48.245Z,52.84
2022-10-09T21:31:18.130Z,52.86
2022-10-09T21:33:45.470Z,52.63
2022-10-09T21:36:23.891Z,52.86
2022-10-09T21:38:50.212Z,52.71
2022-10-09T21:41:16.553Z,52.68
2022-10-09T21:43:42.887Z,52.76
2022-10-09T21:46:09.270Z,52.46
2022-10-09T21:48:35.599Z,52.65
2022-10-09T21:51:01.910Z,52.75
2022-10-09T21:53:28.252Z,52.64
2022-10-09T21:55:54.620Z,52.39
2022-10-09T21:58:20.942Z,52.55
2022-10-09T22:00:55.805Z,52.59
2022-10-09T22:03:24.822Z,52.32
2022-10-09T22:05:51.207Z,52.52
2022-10-09T22:08:17.672Z,52.25
2022-10-09T22:10:43.996Z,52.23
2022-10-09T22:13:10.423Z,52.12
2022-10-09T22:15:40.999Z,52.15
2022-10-09T22:18:07.375Z,51.82
2022-10-09T22:20:33.764Z,52.04
2022-10-09T22:23:00.100Z,52.11
2022-10-09T22:25:26.408Z,51.93
2022-10-09T22:27:52.745Z,52.07
2022-10-09T22:30:19.169Z,51.98
2022-10-09T22:32:45.567Z,52.01
2022-10-09T22:35:11.880Z,51.81
2022-10-09T22:37:38.195Z,51.53
2022-10-09T22:40:04.892Z,51.37
2022-10-09T22:42:31.208Z,51.44
2022-10-09T22:44:57.526Z,51.85
2022-10-09T22:47:23.815Z,51.71
2022-10-09T22:49:50.279Z,51.72
2022-10-09T22:52:16.635Z,51.38
2022-10-09T22:54:43.001Z,51.30
2022-10-09T22:57:09.304Z,51.45
2022-10-09T22:59:35.606Z,51.44
2022-10-09T23:02:01.966Z,51.38
2022-10-09T23:04:29.102Z,51.20
2022-10-09T23:06:57.129Z,51.16
2022-10-09T23:09:31.264Z,51.27
2022-10-09T23:11:58.787Z,51.44
2022-10-09T23:14:26.003Z,51.29
2022-10-09T23:16:52.619Z,51.38
2022-10-09T23:19:18.919Z,51.24
2022-10-09T23:21:46.287Z,51.18
2022-10-09T23:24:17.852Z,51.26
2022-10-09T23:26:50.600Z,51.21
2022-10-09T23:29:19.167Z,51.34
2022-10-09T23:31:46.115Z,50.99
2022-10-09T23:34:12.553Z,51.05
2022-10-09T23:36:38.877Z,50.81
2022-10-09T23:39:06.183Z,50.85
2022-10-09T23:41:32.815Z,51.14
2022-10-09T23:43:59.197Z,51.10
2022-10-09T23:46:28.510Z,50.73
2022-10-09T23:48:55.550Z,50.65
2022-10-09T23:51:23.820Z,50.92
2022-10-09T23:53:50.873Z,50.70
2022-10-09T23:56:29.868Z,51.11
2022-10-09T23:58:57.724Z,50.81
